Bush, Kentucky
Current Conditions -  °F | °C
As of 5:29 AM on Tuesday 27 Jan 2015 (Local Time) from KLOZ Reporting Station
Light Snow Light Snow  
Wind Chill: -4°   Ceiling: 600
Heat Index: -1°   Visibility: 4mi
Dew Point: -4°   Wind: 5mph
Humidity: 82%   Direction: 300°WNW
Pressure: 29.87"   Gusts: NA
Location:  37.09°N, 83.87°W
Report Text: KLOZ 271029Z AUTO 30004KT 4SM -SN BKN006 OVC011 M01/M04 A2987 RMK AO2 P0000 T10111039
Loading
Personal Weather Stations






























Interactive Weather Map New forecast layout! Learn more

10-Day Weather Forecast

Advertisements
Track Severe Weather on mobile